Terminal Aerodrome Forecast
Issued by NWS Northern Indiana

Home | Current Version | Previous Version | Graphics & Text | Print | Product List | Glossary Off
Versions: 1 2 3 4 5 6 7 8 9 10 11 12 13 14 15

000
FTUS43 KIWX 270500
TAFFWA
TAF
KFWA 270536Z 2706/2806 VRB03KT P6SM SCT250
      TEMPO 2708/2712 3SM BR SCT002
     FM271400 03007KT P6SM SCT040 BKN100=

USA.gov is the U.S. government's official web portal to all federal, state and local government web resources and services.